Mexico V — XCKR — position and weather

sailwx.info

Track history (hours):
 
Tides and Currents Weather Stations Pressure Air Temp Water Temp Dewpoint Dewpoint Depression Visibility Wind Speed Wind Dir Waves Ship Positions

Mexico V

Last reported at 2017-Oct-18 12:48 UTC. Time now 2017-Oct-18 13:29 UTC.
Position N 20°33' W 086°59'.

Length 40 m; draft 1.5 m.

Type: Ship. MMSI: 345110005.

Date/timePositionNaut miles runAvg speedWind from/ knotsBaromVisibWave heightAir tempDewpointWater temp
2017-Oct-18 12:48N 20°33' W 086°59'3 9.8
2017-Oct-18 12:30N 20°31' W 086°57'0 0.7
2017-Oct-18 12:00N 20°31' W 086°57'0 0.7
2017-Oct-18 11:30N 20°31' W 086°57'0 0.0
2017-Oct-18 03:15N 20°31' W 086°57'0 0.1
2017-Oct-18 03:01N 20°31' W 086°57'2 4.5
2017-Oct-18 02:30N 20°32' W 086°59'0 0.2
2017-Oct-18 01:15N 20°32' W 086°59'2 8.9
2017-Oct-18 01:00N 20°31' W 086°57'0 0.0
2017-Oct-18 00:30N 20°31' W 086°57'0 0.0
2017-Oct-18 00:00N 20°31' W 086°57'2 1.5
2017-Oct-17 22:18N 20°32' W 086°59'2 6.7
2017-Oct-17 21:56N 20°31' W 086°57'0 0.2
2017-Oct-17 21:30N 20°31' W 086°57'0 0.2
2017-Oct-17 21:00N 20°31' W 086°57'0 0.0
2017-Oct-17 20:30N 20°31' W 086°57'0 0.0
2017-Oct-17 20:00N 20°31' W 086°57'0 0.0
2017-Oct-17 19:30N 20°31' W 086°57'0 0.0
2017-Oct-17 19:00N 20°31' W 086°57'4 8.0
2017-Oct-17 18:30N 20°34' W 086°60'1 0.9
2017-Oct-17 17:16N 20°33' W 086°59'310.5
2017-Oct-17 17:00N 20°31' W 086°57'3 5.8
2017-Oct-17 16:31N 20°33' W 086°59'0 0.1
2017-Oct-17 15:14N 20°33' W 086°59'3 7.6
2017-Oct-17 14:51N 20°31' W 086°57'3 9.8
2017-Oct-17 14:30N 20°33' W 086°60'1 0.4
2017-Oct-17 12:47N 20°33' W 086°59'3 9.6
2017-Oct-17 12:30N 20°31' W 086°57'0 0.1
2017-Oct-17 12:00N 20°31' W 086°57'0 0.0
2017-Oct-17 02:58N 20°31' W 086°57'2 5.0
2017-Oct-17 02:31N 20°32' W 086°59'0 0.3
2017-Oct-17 01:17N 20°33' W 086°59'3 6.0
2017-Oct-17 00:51N 20°31' W 086°57'3 1.9
2017-Oct-16 23:26N 20°33' W 086°59'3 6.2
2017-Oct-16 23:00N 20°31' W 086°57'3 6.3
2017-Oct-16 22:31N 20°33' W 086°60'1 1.0
2017-Oct-16 21:20N 20°34' W 086°60'4 7.8
2017-Oct-16 20:50N 20°31' W 086°57'0 0.1
2017-Oct-16 20:31N 20°31' W 086°57'0 0.0
2017-Oct-16 20:00N 20°31' W 086°57'0 0.0
2017-Oct-16 19:30N 20°31' W 086°57'0 0.0
2017-Oct-16 19:00N 20°31' W 086°57'3 1.8
2017-Oct-16 17:17N 20°33' W 086°59'311.0
2017-Oct-16 17:00N 20°31' W 086°57'3 6.9
2017-Oct-16 16:30N 20°33' W 086°60'1 0.6
2017-Oct-16 15:15N 20°33' W 086°59'3 9.3
2017-Oct-16 14:58N 20°31' W 086°57'3 5.7
2017-Oct-16 14:30N 20°33' W 086°59'0 0.1
2017-Oct-16 12:46N 20°33' W 086°59'310.7
2017-Oct-16 12:30N 20°31' W 086°57'0 0.0
2017-Oct-16 12:00N 20°31' W 086°57'0 0.0
2017-Oct-16 01:15N 20°31' W 086°57'0 0.8
2017-Oct-16 01:01N 20°31' W 086°57'0 0.4
2017-Oct-16 00:30N 20°31' W 086°57'0 0.0
2017-Oct-16 00:01N 20°31' W 086°57'4 8.0
2017-Oct-15 23:30N 20°34' W 086°60'1 0.7
2017-Oct-15 22:19N 20°33' W 086°59'3 9.9
2017-Oct-15 22:00N 20°31' W 086°57'0 0.0
2017-Oct-15 21:30N 20°31' W 086°57'0 0.6
2017-Oct-15 21:00N 20°31' W 086°57'0 0.3
2017-Oct-15 20:31N 20°31' W 086°57'0 0.4
2017-Oct-15 20:00N 20°31' W 086°57'0 0.0
2017-Oct-15 19:30N 20°31' W 086°57'0 0.0
2017-Oct-15 19:01N 20°31' W 086°57'4 8.2
2017-Oct-15 18:30N 20°34' W 086°60'1 1.1
2017-Oct-15 17:19N 20°33' W 086°59'3 4.9
2017-Oct-15 16:45N 20°31' W 086°57'3 2.5
2017-Oct-15 15:22N 20°33' W 086°60'3 9.8
2017-Oct-15 15:01N 20°31' W 086°57'3 1.5
2017-Oct-15 12:51N 20°33' W 086°59'3 9.2
2017-Oct-15 12:30N 20°31' W 086°57'0 0.1
2017-Oct-15 12:00N 20°31' W 086°57'0 0.0
2017-Oct-15 02:47N 20°31' W 086°57'312.1
2017-Oct-15 02:30N 20°33' W 086°60'1 0.6
2017-Oct-15 01:20N 20°33' W 086°59'3 8.7
2017-Oct-15 01:00N 20°31' W 086°57'0 0.0
2017-Oct-15 00:30N 20°31' W 086°57'0 0.0
2017-Oct-15 00:00N 20°31' W 086°57'0 0.0
2017-Oct-14 23:30N 20°31' W 086°57'0 0.0
2017-Oct-14 23:00N 20°31' W 086°57'0 0.0
2017-Oct-14 22:30N 20°31' W 086°57'0 0.0
2017-Oct-14 22:00N 20°31' W 086°57'0 0.1
2017-Oct-14 21:30N 20°31' W 086°57'0 0.1
2017-Oct-14 21:00N 20°31' W 086°57'0 0.0
2017-Oct-14 20:30N 20°31' W 086°57'0 0.0
2017-Oct-14 20:00N 20°31' W 086°57'0 0.0
2017-Oct-14 19:30N 20°31' W 086°57'0 0.0
2017-Oct-14 19:00N 20°31' W 086°57'3 7.0
2017-Oct-14 18:30N 20°33' W 086°60'0 0.3
2017-Oct-14 17:22N 20°33' W 086°59'3 8.8
2017-Oct-14 17:00N 20°31' W 086°57'3 1.7
2017-Oct-14 15:18N 20°33' W 086°59'3 8.7
2017-Oct-14 14:59N 20°31' W 086°57'3 1.5
2017-Oct-14 12:49N 20°33' W 086°60'310.9
2017-Oct-14 12:30N 20°31' W 086°57'0 0.0
2017-Oct-14 03:05N 20°31' W 086°57'0 0.0
2017-Oct-14 03:00N 20°31' W 086°57'4 7.5
2017-Oct-14 02:31N 20°34' W 086°59'2 1.3
2017-Oct-14 01:16N 20°32' W 086°59'2 1.6
2017-Oct-13 23:46N 20°31' W 086°57'414.4
2017-Oct-13 23:31N 20°34' W 086°59'1 0.8
2017-Oct-13 22:16N 20°33' W 086°59'310.0
2017-Oct-13 22:00N 20°31' W 086°57'0 0.0
2017-Oct-13 21:30N 20°31' W 086°57'0 0.0
2017-Oct-13 21:00N 20°31' W 086°57'0 0.0
2017-Oct-13 20:30N 20°31' W 086°57'0 0.0
2017-Oct-13 20:00N 20°31' W 086°57'0 0.0
2017-Oct-13 19:30N 20°31' W 086°57'0 0.7
2017-Oct-13 19:00N 20°31' W 086°57'2 1.2
2017-Oct-13 17:14N 20°32' W 086°59'210.4
2017-Oct-13 17:00N 20°31' W 086°57'3 6.8
2017-Oct-13 16:30N 20°33' W 086°60'1 0.6
2017-Oct-13 15:14N 20°33' W 086°59'3 5.2
2017-Oct-13 14:44N 20°31' W 086°57'314.8
2017-Oct-13 14:30N 20°33' W 086°60'0 0.3
2017-Oct-13 12:56N 20°33' W 086°59'3 5.6
2017-Oct-13 12:25N 20°31' W 086°57'0 0.3
2017-Oct-13 12:00N 20°31' W 086°58'0 0.9
2017-Oct-13 11:30N 20°31' W 086°57'0 0.0
2017-Oct-13 00:33N 20°31' W 086°57'0 0.1
2017-Oct-13 00:30N 20°31' W 086°57'0 0.1
2017-Oct-13 00:00N 20°31' W 086°57'4 7.6
2017-Oct-12 23:30N 20°33' W 087°00'1 0.9
2017-Oct-12 22:17N 20°33' W 086°59'310.3
2017-Oct-12 22:00N 20°31' W 086°57'0 0.0
2017-Oct-12 21:30N 20°31' W 086°57'0 0.1
2017-Oct-12 21:00N 20°31' W 086°57'0 0.0
2017-Oct-12 20:30N 20°31' W 086°57'0 0.0
2017-Oct-12 20:00N 20°31' W 086°57'0 0.0
2017-Oct-12 19:30N 20°31' W 086°57'0 0.1
2017-Oct-12 19:00N 20°31' W 086°57'3 1.9
2017-Oct-12 17:21N 20°33' W 086°59'3 9.1
2017-Oct-12 17:00N 20°31' W 086°57'3 1.6
2017-Oct-12 15:17N 20°33' W 086°59'310.2
2017-Oct-12 15:01N 20°31' W 086°57'4 7.6
2017-Oct-12 14:30N 20°34' W 086°60'1 0.6
2017-Oct-12 12:50N 20°33' W 086°59'3 8.8
2017-Oct-12 12:30N 20°31' W 086°57'0 0.0
2017-Oct-12 01:38N 20°31' W 086°57'0 0.2
2017-Oct-12 01:31N 20°31' W 086°57'0 0.0
2017-Oct-12 01:01N 20°31' W 086°57'4 7.0
2017-Oct-12 00:30N 20°33' W 086°60'0 0.1
2017-Oct-11 23:21N 20°33' W 086°60'410.1
2017-Oct-11 23:00N 20°31' W 086°57'0 0.0
2017-Oct-11 22:30N 20°31' W 086°57'2 4.1
2017-Oct-11 22:00N 20°29' W 086°58'2 0.1
2017-Oct-11 00:00N 20°31' W 086°57'3 6.6
2017-Oct-10 23:30N 20°33' W 086°60'1 0.4
2017-Oct-10 22:21N 20°33' W 086°59'310.2
2017-Oct-10 22:00N 20°31' W 086°57'0 0.0
2017-Oct-10 21:31N 20°31' W 086°57'1 1.9
2017-Oct-10 21:01N 20°30' W 086°58'2 3.0
2017-Oct-10 20:30N 20°31' W 086°59'2 1.6
2017-Oct-10 19:11N 20°33' W 086°59'315.2
2017-Oct-10 19:00N 20°31' W 086°57'2 1.4
2017-Oct-10 17:20N 20°32' W 086°59'2 7.1
2017-Oct-10 17:00N 20°31' W 086°57'2 1.1
2017-Oct-10 15:14N 20°32' W 086°59'2 8.4
2017-Oct-10 15:00N 20°31' W 086°57'2 0.9
2017-Oct-10 12:47N 20°30' W 086°59'1 5.0
2017-Oct-10 12:30N 20°29' W 086°58'0 0.5
2017-Oct-10 12:00N 20°29' W 086°58'1 1.7
2017-Oct-10 11:30N 20°30' W 086°58'1 3.0
2017-Oct-10 11:00N 20°31' W 086°57'0 0.0
2017-Oct-10 02:58N 20°31' W 086°57'3 6.7
2017-Oct-10 02:30N 20°33' W 086°59'1 0.8
2017-Oct-10 01:19N 20°32' W 086°59'3 8.7
2017-Oct-10 01:00N 20°31' W 086°57'0 0.0
2017-Oct-10 00:30N 20°31' W 086°57'0 0.0
2017-Oct-10 00:00N 20°31' W 086°57'3 1.4
2017-Oct-09 22:15N 20°32' W 086°59'310.6
2017-Oct-09 22:00N 20°31' W 086°57'0 0.1
2017-Oct-09 21:30N 20°31' W 086°57'0 0.0
2017-Oct-09 21:00N 20°31' W 086°57'0 0.0
2017-Oct-09 20:30N 20°31' W 086°57'0 0.0
2017-Oct-09 20:00N 20°31' W 086°57'0 0.0
2017-Oct-09 19:30N 20°31' W 086°57'0 0.1
2017-Oct-09 19:00N 20°31' W 086°57'4 8.0
2017-Oct-09 18:30N 20°34' W 086°60'1 0.9
2017-Oct-09 17:20N 20°33' W 086°59'3 9.2
2017-Oct-09 17:00N 20°31' W 086°57'3 1.6
2017-Oct-09 15:18N 20°33' W 086°59'3 9.0
2017-Oct-09 15:00N 20°31' W 086°57'3 6.7
2017-Oct-09 14:30N 20°33' W 086°60'1 0.4
2017-Oct-09 12:48N 20°33' W 086°59'3 9.7
2017-Oct-09 12:30N 20°31' W 086°57'0 0.0
2017-Oct-09 12:00N 20°31' W 086°57'0 0.0
2017-Oct-09 11:30N 20°31' W 086°57'0 0.0
2017-Oct-09 00:59N 20°31' W 086°57'0 0.0
2017-Oct-09 00:30N 20°31' W 086°57'0 0.0
2017-Oct-09 00:00N 20°31' W 086°57'4 7.0
2017-Oct-08 23:31N 20°33' W 086°60'0 0.3
2017-Oct-08 22:19N 20°33' W 086°60'311.1
2017-Oct-08 22:01N 20°31' W 086°57'0 0.1
2017-Oct-08 21:30N 20°31' W 086°57'0 0.2
2017-Oct-08 21:00N 20°31' W 086°57'0 0.0
2017-Oct-08 20:31N 20°31' W 086°57'0 0.0
2017-Oct-08 20:00N 20°31' W 086°57'0 0.0
2017-Oct-08 19:31N 20°31' W 086°57'0 0.1
2017-Oct-08 19:00N 20°31' W 086°57'3 1.6
2017-Oct-08 17:19N 20°33' W 086°59'3 8.7
2017-Oct-08 17:00N 20°31' W 086°57'4 7.4
2017-Oct-08 16:30N 20°34' W 086°60'0 0.2
2017-Oct-08 15:20N 20°34' W 086°59'411.2
2017-Oct-08 15:00N 20°31' W 086°57'4 7.4
2017-Oct-08 14:30N 20°34' W 086°59'1 0.5
2017-Oct-08 12:49N 20°33' W 086°59'  
Track history (hours):
 
Tides and Currents Weather Stations Pressure Air Temp Water Temp Dewpoint Dewpoint Depression Visibility Wind Speed Wind Dir Waves Ship Positions

Mexico V

Last reported at 2017-Oct-18 12:48 UTC. Time now 2017-Oct-18 13:29 UTC.
Position N 20°33' W 086°59'.

Length 40 m; draft 1.5 m.

Type: Ship. MMSI: 345110005.

Date/timePositionNaut miles runAvg speedWind from/ knotsBaromVisibWave heightAir tempDewpointWater temp
2017-Oct-18 12:48N 20°33' W 086°59'3 9.8
2017-Oct-18 12:30N 20°31' W 086°57'0 0.7
2017-Oct-18 12:00N 20°31' W 086°57'0 0.7
2017-Oct-18 11:30N 20°31' W 086°57'0 0.0
2017-Oct-18 03:15N 20°31' W 086°57'0 0.1
2017-Oct-18 03:01N 20°31' W 086°57'2 4.5
2017-Oct-18 02:30N 20°32' W 086°59'0 0.2
2017-Oct-18 01:15N 20°32' W 086°59'2 8.9
2017-Oct-18 01:00N 20°31' W 086°57'0 0.0
2017-Oct-18 00:30N 20°31' W 086°57'0 0.0
2017-Oct-18 00:00N 20°31' W 086°57'2 1.5
2017-Oct-17 22:18N 20°32' W 086°59'2 6.7
2017-Oct-17 21:56N 20°31' W 086°57'0 0.2
2017-Oct-17 21:30N 20°31' W 086°57'0 0.2
2017-Oct-17 21:00N 20°31' W 086°57'0 0.0
2017-Oct-17 20:30N 20°31' W 086°57'0 0.0
2017-Oct-17 20:00N 20°31' W 086°57'0 0.0
2017-Oct-17 19:30N 20°31' W 086°57'0 0.0
2017-Oct-17 19:00N 20°31' W 086°57'4 8.0
2017-Oct-17 18:30N 20°34' W 086°60'1 0.9
2017-Oct-17 17:16N 20°33' W 086°59'310.5
2017-Oct-17 17:00N 20°31' W 086°57'3 5.8
2017-Oct-17 16:31N 20°33' W 086°59'0 0.1
2017-Oct-17 15:14N 20°33' W 086°59'3 7.6
2017-Oct-17 14:51N 20°31' W 086°57'3 9.8
2017-Oct-17 14:30N 20°33' W 086°60'1 0.4
2017-Oct-17 12:47N 20°33' W 086°59'3 9.6
2017-Oct-17 12:30N 20°31' W 086°57'0 0.1
2017-Oct-17 12:00N 20°31' W 086°57'0 0.0
2017-Oct-17 02:58N 20°31' W 086°57'2 5.0
2017-Oct-17 02:31N 20°32' W 086°59'0 0.3
2017-Oct-17 01:17N 20°33' W 086°59'3 6.0
2017-Oct-17 00:51N 20°31' W 086°57'3 1.9
2017-Oct-16 23:26N 20°33' W 086°59'3 6.2
2017-Oct-16 23:00N 20°31' W 086°57'3 6.3
2017-Oct-16 22:31N 20°33' W 086°60'1 1.0
2017-Oct-16 21:20N 20°34' W 086°60'4 7.8
2017-Oct-16 20:50N 20°31' W 086°57'0 0.1
2017-Oct-16 20:31N 20°31' W 086°57'0 0.0
2017-Oct-16 20:00N 20°31' W 086°57'0 0.0
2017-Oct-16 19:30N 20°31' W 086°57'0 0.0
2017-Oct-16 19:00N 20°31' W 086°57'3 1.8
2017-Oct-16 17:17N 20°33' W 086°59'311.0
2017-Oct-16 17:00N 20°31' W 086°57'3 6.9
2017-Oct-16 16:30N 20°33' W 086°60'1 0.6
2017-Oct-16 15:15N 20°33' W 086°59'3 9.3
2017-Oct-16 14:58N 20°31' W 086°57'3 5.7
2017-Oct-16 14:30N 20°33' W 086°59'0 0.1
2017-Oct-16 12:46N 20°33' W 086°59'310.7
2017-Oct-16 12:30N 20°31' W 086°57'0 0.0
2017-Oct-16 12:00N 20°31' W 086°57'0 0.0
2017-Oct-16 01:15N 20°31' W 086°57'0 0.8
2017-Oct-16 01:01N 20°31' W 086°57'0 0.4
2017-Oct-16 00:30N 20°31' W 086°57'0 0.0
2017-Oct-16 00:01N 20°31' W 086°57'4 8.0
2017-Oct-15 23:30N 20°34' W 086°60'1 0.7
2017-Oct-15 22:19N 20°33' W 086°59'3 9.9
2017-Oct-15 22:00N 20°31' W 086°57'0 0.0
2017-Oct-15 21:30N 20°31' W 086°57'0 0.6
2017-Oct-15 21:00N 20°31' W 086°57'0 0.3
2017-Oct-15 20:31N 20°31' W 086°57'0 0.4
2017-Oct-15 20:00N 20°31' W 086°57'0 0.0
2017-Oct-15 19:30N 20°31' W 086°57'0 0.0
2017-Oct-15 19:01N 20°31' W 086°57'4 8.2
2017-Oct-15 18:30N 20°34' W 086°60'1 1.1
2017-Oct-15 17:19N 20°33' W 086°59'3 4.9
2017-Oct-15 16:45N 20°31' W 086°57'3 2.5
2017-Oct-15 15:22N 20°33' W 086°60'3 9.8
2017-Oct-15 15:01N 20°31' W 086°57'3 1.5
2017-Oct-15 12:51N 20°33' W 086°59'3 9.2
2017-Oct-15 12:30N 20°31' W 086°57'0 0.1
2017-Oct-15 12:00N 20°31' W 086°57'0 0.0
2017-Oct-15 02:47N 20°31' W 086°57'312.1
2017-Oct-15 02:30N 20°33' W 086°60'1 0.6
2017-Oct-15 01:20N 20°33' W 086°59'3 8.7
2017-Oct-15 01:00N 20°31' W 086°57'0 0.0
2017-Oct-15 00:30N 20°31' W 086°57'0 0.0
2017-Oct-15 00:00N 20°31' W 086°57'0 0.0
2017-Oct-14 23:30N 20°31' W 086°57'0 0.0
2017-Oct-14 23:00N 20°31' W 086°57'0 0.0
2017-Oct-14 22:30N 20°31' W 086°57'0 0.0
2017-Oct-14 22:00N 20°31' W 086°57'0 0.1
2017-Oct-14 21:30N 20°31' W 086°57'0 0.1
2017-Oct-14 21:00N 20°31' W 086°57'0 0.0
2017-Oct-14 20:30N 20°31' W 086°57'0 0.0
2017-Oct-14 20:00N 20°31' W 086°57'0 0.0
2017-Oct-14 19:30N 20°31' W 086°57'0 0.0
2017-Oct-14 19:00N 20°31' W 086°57'3 7.0
2017-Oct-14 18:30N 20°33' W 086°60'0 0.3
2017-Oct-14 17:22N 20°33' W 086°59'3 8.8
2017-Oct-14 17:00N 20°31' W 086°57'3 1.7
2017-Oct-14 15:18N 20°33' W 086°59'3 8.7
2017-Oct-14 14:59N 20°31' W 086°57'3 1.5
2017-Oct-14 12:49N 20°33' W 086°60'310.9
2017-Oct-14 12:30N 20°31' W 086°57'0 0.0
2017-Oct-14 03:05N 20°31' W 086°57'0 0.0
2017-Oct-14 03:00N 20°31' W 086°57'4 7.5
2017-Oct-14 02:31N 20°34' W 086°59'2 1.3
2017-Oct-14 01:16N 20°32' W 086°59'2 1.6
2017-Oct-13 23:46N 20°31' W 086°57'414.4
2017-Oct-13 23:31N 20°34' W 086°59'1 0.8
2017-Oct-13 22:16N 20°33' W 086°59'310.0
2017-Oct-13 22:00N 20°31' W 086°57'0 0.0
2017-Oct-13 21:30N 20°31' W 086°57'0 0.0
2017-Oct-13 21:00N 20°31' W 086°57'0 0.0
2017-Oct-13 20:30N 20°31' W 086°57'0 0.0
2017-Oct-13 20:00N 20°31' W 086°57'0 0.0
2017-Oct-13 19:30N 20°31' W 086°57'0 0.7
2017-Oct-13 19:00N 20°31' W 086°57'2 1.2
2017-Oct-13 17:14N 20°32' W 086°59'210.4
2017-Oct-13 17:00N 20°31' W 086°57'3 6.8
2017-Oct-13 16:30N 20°33' W 086°60'1 0.6
2017-Oct-13 15:14N 20°33' W 086°59'3 5.2
2017-Oct-13 14:44N 20°31' W 086°57'314.8
2017-Oct-13 14:30N 20°33' W 086°60'0 0.3
2017-Oct-13 12:56N 20°33' W 086°59'3 5.6
2017-Oct-13 12:25N 20°31' W 086°57'0 0.3
2017-Oct-13 12:00N 20°31' W 086°58'0 0.9
2017-Oct-13 11:30N 20°31' W 086°57'0 0.0
2017-Oct-13 00:33N 20°31' W 086°57'0 0.1
2017-Oct-13 00:30N 20°31' W 086°57'0 0.1
2017-Oct-13 00:00N 20°31' W 086°57'4 7.6
2017-Oct-12 23:30N 20°33' W 087°00'1 0.9
2017-Oct-12 22:17N 20°33' W 086°59'310.3
2017-Oct-12 22:00N 20°31' W 086°57'0 0.0
2017-Oct-12 21:30N 20°31' W 086°57'0 0.1
2017-Oct-12 21:00N 20°31' W 086°57'0 0.0
2017-Oct-12 20:30N 20°31' W 086°57'0 0.0
2017-Oct-12 20:00N 20°31' W 086°57'0 0.0
2017-Oct-12 19:30N 20°31' W 086°57'0 0.1
2017-Oct-12 19:00N 20°31' W 086°57'3 1.9
2017-Oct-12 17:21N 20°33' W 086°59'3 9.1
2017-Oct-12 17:00N 20°31' W 086°57'3 1.6
2017-Oct-12 15:17N 20°33' W 086°59'310.2
2017-Oct-12 15:01N 20°31' W 086°57'4 7.6
2017-Oct-12 14:30N 20°34' W 086°60'1 0.6
2017-Oct-12 12:50N 20°33' W 086°59'3 8.8
2017-Oct-12 12:30N 20°31' W 086°57'0 0.0
2017-Oct-12 01:38N 20°31' W 086°57'0 0.2
2017-Oct-12 01:31N 20°31' W 086°57'0 0.0
2017-Oct-12 01:01N 20°31' W 086°57'4 7.0
2017-Oct-12 00:30N 20°33' W 086°60'0 0.1
2017-Oct-11 23:21N 20°33' W 086°60'410.1
2017-Oct-11 23:00N 20°31' W 086°57'0 0.0
2017-Oct-11 22:30N 20°31' W 086°57'2 4.1
2017-Oct-11 22:00N 20°29' W 086°58'2 0.1
2017-Oct-11 00:00N 20°31' W 086°57'3 6.6
2017-Oct-10 23:30N 20°33' W 086°60'1 0.4
2017-Oct-10 22:21N 20°33' W 086°59'310.2
2017-Oct-10 22:00N 20°31' W 086°57'0 0.0
2017-Oct-10 21:31N 20°31' W 086°57'1 1.9
2017-Oct-10 21:01N 20°30' W 086°58'2 3.0
2017-Oct-10 20:30N 20°31' W 086°59'2 1.6
2017-Oct-10 19:11N 20°33' W 086°59'315.2
2017-Oct-10 19:00N 20°31' W 086°57'2 1.4
2017-Oct-10 17:20N 20°32' W 086°59'2 7.1
2017-Oct-10 17:00N 20°31' W 086°57'2 1.1
2017-Oct-10 15:14N 20°32' W 086°59'2 8.4
2017-Oct-10 15:00N 20°31' W 086°57'2 0.9
2017-Oct-10 12:47N 20°30' W 086°59'1 5.0
2017-Oct-10 12:30N 20°29' W 086°58'0 0.5
2017-Oct-10 12:00N 20°29' W 086°58'1 1.7
2017-Oct-10 11:30N 20°30' W 086°58'1 3.0
2017-Oct-10 11:00N 20°31' W 086°57'0 0.0
2017-Oct-10 02:58N 20°31' W 086°57'3 6.7
2017-Oct-10 02:30N 20°33' W 086°59'1 0.8
2017-Oct-10 01:19N 20°32' W 086°59'3 8.7
2017-Oct-10 01:00N 20°31' W 086°57'0 0.0
2017-Oct-10 00:30N 20°31' W 086°57'0 0.0
2017-Oct-10 00:00N 20°31' W 086°57'3 1.4
2017-Oct-09 22:15N 20°32' W 086°59'310.6
2017-Oct-09 22:00N 20°31' W 086°57'0 0.1
2017-Oct-09 21:30N 20°31' W 086°57'0 0.0
2017-Oct-09 21:00N 20°31' W 086°57'0 0.0
2017-Oct-09 20:30N 20°31' W 086°57'0 0.0
2017-Oct-09 20:00N 20°31' W 086°57'0 0.0
2017-Oct-09 19:30N 20°31' W 086°57'0 0.1
2017-Oct-09 19:00N 20°31' W 086°57'4 8.0
2017-Oct-09 18:30N 20°34' W 086°60'1 0.9
2017-Oct-09 17:20N 20°33' W 086°59'3 9.2
2017-Oct-09 17:00N 20°31' W 086°57'3 1.6
2017-Oct-09 15:18N 20°33' W 086°59'3 9.0
2017-Oct-09 15:00N 20°31' W 086°57'3 6.7
2017-Oct-09 14:30N 20°33' W 086°60'1 0.4
2017-Oct-09 12:48N 20°33' W 086°59'3 9.7
2017-Oct-09 12:30N 20°31' W 086°57'0 0.0
2017-Oct-09 12:00N 20°31' W 086°57'0 0.0
2017-Oct-09 11:30N 20°31' W 086°57'0 0.0
2017-Oct-09 00:59N 20°31' W 086°57'0 0.0
2017-Oct-09 00:30N 20°31' W 086°57'0 0.0
2017-Oct-09 00:00N 20°31' W 086°57'4 7.0
2017-Oct-08 23:31N 20°33' W 086°60'0 0.3
2017-Oct-08 22:19N 20°33' W 086°60'311.1
2017-Oct-08 22:01N 20°31' W 086°57'0 0.1
2017-Oct-08 21:30N 20°31' W 086°57'0 0.2
2017-Oct-08 21:00N 20°31' W 086°57'0 0.0
2017-Oct-08 20:31N 20°31' W 086°57'0 0.0
2017-Oct-08 20:00N 20°31' W 086°57'0 0.0
2017-Oct-08 19:31N 20°31' W 086°57'0 0.1
2017-Oct-08 19:00N 20°31' W 086°57'3 1.6
2017-Oct-08 17:19N 20°33' W 086°59'3 8.7
2017-Oct-08 17:00N 20°31' W 086°57'4 7.4
2017-Oct-08 16:30N 20°34' W 086°60'0 0.2
2017-Oct-08 15:20N 20°34' W 086°59'411.2
2017-Oct-08 15:00N 20°31' W 086°57'4 7.4
2017-Oct-08 14:30N 20°34' W 086°59'1 0.5
2017-Oct-08 12:49N 20°33' W 086°59'  

Dump ship's entire track history